Shin-oh Maru — JG5594 — position and weather

sailwx.info

Track history (hours):
 
Tides and Currents Weather Stations Pressure Air Temp Water Temp Dewpoint Dewpoint Depression Visibility Wind Speed Wind Dir Waves Ship Positions

Shin-oh Maru

Last reported at 2014-Aug-22 01:20 UTC. Time now 2014-Aug-22 15:48 UTC.
Position N 36°57' E 141°28'.

Length 161 m; draft 7 m.

Type: Ship (hazmat cat A). MMSI: 431100859.

Date/timePositionNaut miles runAvg speedWind from/ knotsBaromVisibWave heightAir tempDewpointWater temp
2014-Aug-22 01:20N 36°57' E 141°28'2118.1
2014-Aug-22 00:11N 36°36' E 141°21'1317.5
2014-Aug-21 23:25N 36°24' E 141°15'1718.6
2014-Aug-21 22:31N 36°08' E 141°10'1918.4
2014-Aug-21 21:27N 35°49' E 141°03'2118.2
2014-Aug-21 20:20N 35°31' E 140°52'1418.6
2014-Aug-21 19:33N 35°19' E 140°41'2019.5
2014-Aug-21 18:31N 35°03' E 140°26'2020.3
2014-Aug-21 17:33N 34°53' E 140°05'1717.0
2014-Aug-21 16:33N 34°54' E 139°45'1717.3
2014-Aug-21 15:33N 35°12' E 139°46'1313.3
2014-Aug-21 14:34N 35°25' E 139°44'1212.1
2014-Aug-21 13:33N 35°37' E 139°46'1 0.9
2014-Aug-21 12:33N 35°38' E 139°46'0 0.0
2014-Aug-21 11:22N 35°38' E 139°46'0 0.0
2014-Aug-21 10:28N 35°38' E 139°46'0 0.0
2014-Aug-21 09:28N 35°38' E 139°46'0 0.0
2014-Aug-21 08:33N 35°38' E 139°46'10 9.9
2014-Aug-21 07:33N 35°29' E 139°52'1313.2
2014-Aug-21 06:33N 35°17' E 139°45'1615.8
2014-Aug-21 05:33N 35°02' E 139°44'1413.8
2014-Aug-21 04:33N 34°53' E 139°57'1717.0
2014-Aug-21 03:33N 35°01' E 140°16'1716.7
2014-Aug-21 02:33N 35°11' E 140°32'1817.7
2014-Aug-21 01:33N 35°25' E 140°45'2218.0
2014-Aug-21 00:19N 35°43' E 141°01'1517.9
2014-Aug-20 23:27N 35°58' E 141°07'1618.3
2014-Aug-20 22:33N 36°14' E 141°12'2218.9
2014-Aug-20 21:24N 36°35' E 141°19'6 0.1
2014-Aug-18 23:33N 36°28' E 141°17'3919.1
2014-Aug-18 21:31N 35°51' E 141°02'1819.0
2014-Aug-18 20:33N 35°34' E 140°54'2619.9
2014-Aug-18 19:14N 35°13' E 140°35'1519.3
2014-Aug-18 18:27N 35°02' E 140°23'1819.5
2014-Aug-18 17:33N 34°53' E 140°05'1717.2
2014-Aug-18 16:33N 34°55' E 139°44'1817.8
2014-Aug-18 15:33N 35°13' E 139°46'1312.8
2014-Aug-18 14:34N 35°25' E 139°44'1212.0
2014-Aug-18 13:33N 35°37' E 139°46'0 0.5
2014-Aug-18 12:33N 35°38' E 139°46'0 0.0
2014-Aug-18 11:32N 35°38' E 139°46'0 0.0
2014-Aug-18 10:32N 35°38' E 139°46'0 0.0
2014-Aug-18 09:29N 35°38' E 139°46'0 0.0
2014-Aug-18 08:33N 35°38' E 139°46'9 9.2
2014-Aug-18 07:33N 35°31' E 139°53'1414.4
2014-Aug-18 06:33N 35°18' E 139°45'1615.6
2014-Aug-18 05:33N 35°02' E 139°44'1514.7
2014-Aug-18 04:33N 34°52' E 139°57'1818.4
2014-Aug-18 03:33N 35°00' E 140°17'1817.8
2014-Aug-18 02:33N 35°11' E 140°34'1818.1
2014-Aug-18 01:33N 35°26' E 140°47'2018.9
2014-Aug-18 00:28N 35°43' E 141°00'  
2014-Aug-15 20:07N 35°30' E 140°52'1218.6
2014-Aug-15 19:28N 35°20' E 140°43'2319.9
2014-Aug-15 18:20N 35°03' E 140°25'1418.7
2014-Aug-15 17:33N 34°55' E 140°10'1717.3
2014-Aug-15 16:33N 34°50' E 139°49'1716.7
2014-Aug-15 15:33N 35°07' E 139°44'1313.5
2014-Aug-15 14:33N 35°20' E 139°42'1514.9
2014-Aug-15 13:33N 35°34' E 139°49'5 4.8
2014-Aug-15 12:34N 35°38' E 139°46'0 0.0
2014-Aug-15 11:32N 35°38' E 139°46'0 0.0
2014-Aug-15 10:26N 35°38' E 139°46'0 0.0
2014-Aug-15 09:29N 35°38' E 139°46'0 0.0
2014-Aug-15 08:32N 35°38' E 139°46'0 0.0
2014-Aug-15 07:29N 35°38' E 139°46'0 0.0
2014-Aug-15 06:29N 35°38' E 139°46'0 0.0
2014-Aug-15 05:26N 35°38' E 139°46'0 0.0
2014-Aug-15 04:32N 35°38' E 139°46'0 0.0
2014-Aug-15 03:29N 35°38' E 139°46'3 3.3
2014-Aug-15 02:33N 35°35' E 139°48'5 5.1
2014-Aug-15 01:33N 35°33' E 139°53'0 0.0
2014-Aug-15 00:29N 35°33' E 139°53'0 0.1
2014-Aug-14 23:32N 35°33' E 139°53'0 0.0
2014-Aug-14 22:29N 35°33' E 139°53'0 0.0
2014-Aug-14 21:29N 35°33' E 139°53'0 0.0
2014-Aug-14 20:32N 35°33' E 139°53'0 0.0
2014-Aug-14 19:26N 35°33' E 139°53'0 0.0
2014-Aug-14 18:32N 35°33' E 139°53'0 0.0
2014-Aug-14 17:32N 35°33' E 139°53'0 0.0
2014-Aug-14 16:32N 35°33' E 139°53'0 0.0
2014-Aug-14 15:32N 35°33' E 139°53'0 0.0
2014-Aug-14 14:32N 35°33' E 139°53'0 0.0
2014-Aug-14 13:32N 35°33' E 139°53'0 0.0
2014-Aug-14 12:29N 35°33' E 139°53'0 0.0
2014-Aug-14 11:32N 35°33' E 139°53'0 0.0
2014-Aug-14 10:32N 35°33' E 139°53'0 0.0
2014-Aug-14 09:26N 35°33' E 139°53'6 7.3
2014-Aug-14 08:34N 35°27' E 139°50'1212.1
2014-Aug-14 07:34N 35°16' E 139°47'1717.0
2014-Aug-14 06:33N 34°59' E 139°42'1514.6
2014-Aug-14 05:33N 34°52' E 139°58'1817.9
2014-Aug-14 04:33N 35°00' E 140°18'1616.5
2014-Aug-14 03:33N 35°10' E 140°34'1716.3
2014-Aug-14 02:32N 35°23' E 140°46'9318.6
2014-Aug-13 21:30N 36°52' E 141°25'  
Track history (hours):
 
Tides and Currents Weather Stations Pressure Air Temp Water Temp Dewpoint Dewpoint Depression Visibility Wind Speed Wind Dir Waves Ship Positions

Shin-oh Maru

Last reported at 2014-Aug-22 01:20 UTC. Time now 2014-Aug-22 15:48 UTC.
Position N 36°57' E 141°28'.

Length 161 m; draft 7 m.

Type: Ship (hazmat cat A). MMSI: 431100859.

Date/timePositionNaut miles runAvg speedWind from/ knotsBaromVisibWave heightAir tempDewpointWater temp
2014-Aug-22 01:20N 36°57' E 141°28'2118.1
2014-Aug-22 00:11N 36°36' E 141°21'1317.5
2014-Aug-21 23:25N 36°24' E 141°15'1718.6
2014-Aug-21 22:31N 36°08' E 141°10'1918.4
2014-Aug-21 21:27N 35°49' E 141°03'2118.2
2014-Aug-21 20:20N 35°31' E 140°52'1418.6
2014-Aug-21 19:33N 35°19' E 140°41'2019.5
2014-Aug-21 18:31N 35°03' E 140°26'2020.3
2014-Aug-21 17:33N 34°53' E 140°05'1717.0
2014-Aug-21 16:33N 34°54' E 139°45'1717.3
2014-Aug-21 15:33N 35°12' E 139°46'1313.3
2014-Aug-21 14:34N 35°25' E 139°44'1212.1
2014-Aug-21 13:33N 35°37' E 139°46'1 0.9
2014-Aug-21 12:33N 35°38' E 139°46'0 0.0
2014-Aug-21 11:22N 35°38' E 139°46'0 0.0
2014-Aug-21 10:28N 35°38' E 139°46'0 0.0
2014-Aug-21 09:28N 35°38' E 139°46'0 0.0
2014-Aug-21 08:33N 35°38' E 139°46'10 9.9
2014-Aug-21 07:33N 35°29' E 139°52'1313.2
2014-Aug-21 06:33N 35°17' E 139°45'1615.8
2014-Aug-21 05:33N 35°02' E 139°44'1413.8
2014-Aug-21 04:33N 34°53' E 139°57'1717.0
2014-Aug-21 03:33N 35°01' E 140°16'1716.7
2014-Aug-21 02:33N 35°11' E 140°32'1817.7
2014-Aug-21 01:33N 35°25' E 140°45'2218.0
2014-Aug-21 00:19N 35°43' E 141°01'1517.9
2014-Aug-20 23:27N 35°58' E 141°07'1618.3
2014-Aug-20 22:33N 36°14' E 141°12'2218.9
2014-Aug-20 21:24N 36°35' E 141°19'6 0.1
2014-Aug-18 23:33N 36°28' E 141°17'3919.1
2014-Aug-18 21:31N 35°51' E 141°02'1819.0
2014-Aug-18 20:33N 35°34' E 140°54'2619.9
2014-Aug-18 19:14N 35°13' E 140°35'1519.3
2014-Aug-18 18:27N 35°02' E 140°23'1819.5
2014-Aug-18 17:33N 34°53' E 140°05'1717.2
2014-Aug-18 16:33N 34°55' E 139°44'1817.8
2014-Aug-18 15:33N 35°13' E 139°46'1312.8
2014-Aug-18 14:34N 35°25' E 139°44'1212.0
2014-Aug-18 13:33N 35°37' E 139°46'0 0.5
2014-Aug-18 12:33N 35°38' E 139°46'0 0.0
2014-Aug-18 11:32N 35°38' E 139°46'0 0.0
2014-Aug-18 10:32N 35°38' E 139°46'0 0.0
2014-Aug-18 09:29N 35°38' E 139°46'0 0.0
2014-Aug-18 08:33N 35°38' E 139°46'9 9.2
2014-Aug-18 07:33N 35°31' E 139°53'1414.4
2014-Aug-18 06:33N 35°18' E 139°45'1615.6
2014-Aug-18 05:33N 35°02' E 139°44'1514.7
2014-Aug-18 04:33N 34°52' E 139°57'1818.4
2014-Aug-18 03:33N 35°00' E 140°17'1817.8
2014-Aug-18 02:33N 35°11' E 140°34'1818.1
2014-Aug-18 01:33N 35°26' E 140°47'2018.9
2014-Aug-18 00:28N 35°43' E 141°00'  
2014-Aug-15 20:07N 35°30' E 140°52'1218.6
2014-Aug-15 19:28N 35°20' E 140°43'2319.9
2014-Aug-15 18:20N 35°03' E 140°25'1418.7
2014-Aug-15 17:33N 34°55' E 140°10'1717.3
2014-Aug-15 16:33N 34°50' E 139°49'1716.7
2014-Aug-15 15:33N 35°07' E 139°44'1313.5
2014-Aug-15 14:33N 35°20' E 139°42'1514.9
2014-Aug-15 13:33N 35°34' E 139°49'5 4.8
2014-Aug-15 12:34N 35°38' E 139°46'0 0.0
2014-Aug-15 11:32N 35°38' E 139°46'0 0.0
2014-Aug-15 10:26N 35°38' E 139°46'0 0.0
2014-Aug-15 09:29N 35°38' E 139°46'0 0.0
2014-Aug-15 08:32N 35°38' E 139°46'0 0.0
2014-Aug-15 07:29N 35°38' E 139°46'0 0.0
2014-Aug-15 06:29N 35°38' E 139°46'0 0.0
2014-Aug-15 05:26N 35°38' E 139°46'0 0.0
2014-Aug-15 04:32N 35°38' E 139°46'0 0.0
2014-Aug-15 03:29N 35°38' E 139°46'3 3.3
2014-Aug-15 02:33N 35°35' E 139°48'5 5.1
2014-Aug-15 01:33N 35°33' E 139°53'0 0.0
2014-Aug-15 00:29N 35°33' E 139°53'0 0.1
2014-Aug-14 23:32N 35°33' E 139°53'0 0.0
2014-Aug-14 22:29N 35°33' E 139°53'0 0.0
2014-Aug-14 21:29N 35°33' E 139°53'0 0.0
2014-Aug-14 20:32N 35°33' E 139°53'0 0.0
2014-Aug-14 19:26N 35°33' E 139°53'0 0.0
2014-Aug-14 18:32N 35°33' E 139°53'0 0.0
2014-Aug-14 17:32N 35°33' E 139°53'0 0.0
2014-Aug-14 16:32N 35°33' E 139°53'0 0.0
2014-Aug-14 15:32N 35°33' E 139°53'0 0.0
2014-Aug-14 14:32N 35°33' E 139°53'0 0.0
2014-Aug-14 13:32N 35°33' E 139°53'0 0.0
2014-Aug-14 12:29N 35°33' E 139°53'0 0.0
2014-Aug-14 11:32N 35°33' E 139°53'0 0.0
2014-Aug-14 10:32N 35°33' E 139°53'0 0.0
2014-Aug-14 09:26N 35°33' E 139°53'6 7.3
2014-Aug-14 08:34N 35°27' E 139°50'1212.1
2014-Aug-14 07:34N 35°16' E 139°47'1717.0
2014-Aug-14 06:33N 34°59' E 139°42'1514.6
2014-Aug-14 05:33N 34°52' E 139°58'1817.9
2014-Aug-14 04:33N 35°00' E 140°18'1616.5
2014-Aug-14 03:33N 35°10' E 140°34'1716.3
2014-Aug-14 02:32N 35°23' E 140°46'9318.6
2014-Aug-13 21:30N 36°52' E 141°25'  

Dump ship's entire track history